createdAt,value
2023-01-27T00:09:55.604Z,40.88
2023-01-27T00:19:58.306Z,47.10
2023-01-27T00:30:07.073Z,42.33
2023-01-27T00:40:11.200Z,37.72
2023-01-27T00:50:14.404Z,36.80
2023-01-27T01:00:17.855Z,38.20
2023-01-27T01:10:20.541Z,38.97
2023-01-27T01:20:24.171Z,29.95
2023-01-27T01:30:27.534Z,36.20
2023-01-27T01:40:30.066Z,34.07
2023-01-27T01:50:34.032Z,24.30
2023-01-27T02:00:36.839Z,25.37
2023-01-27T02:10:40.117Z,26.20
2023-01-27T02:21:01.722Z,30.58
2023-01-27T02:31:04.913Z,24.17
2023-01-27T02:41:35.245Z,23.43
2023-01-27T02:51:39.392Z,23.17
2023-01-27T03:01:42.415Z,21.90
2023-01-27T03:12:03.542Z,18.43
2023-01-27T03:22:06.280Z,19.53
2023-01-27T03:32:11.842Z,15.70
2023-01-27T03:42:33.735Z,16.30
2023-01-27T03:52:36.489Z,13.23
2023-01-27T04:02:57.515Z,13.15
2023-01-27T04:12:59.993Z,13.93
2023-01-27T04:23:02.435Z,10.80
2023-01-27T04:33:06.431Z,10.60
2023-01-27T04:43:09.039Z,9.93
2023-01-27T04:53:11.544Z,12.57
2023-01-27T05:03:14.312Z,13.47
2023-01-27T05:13:17.102Z,11.57
2023-01-27T05:23:37.576Z,14.77
2023-01-27T05:33:41.858Z,11.00
2023-01-27T05:43:46.325Z,18.88
2023-01-27T05:53:49.419Z,14.20
2023-01-27T06:03:53.891Z,16.67
2023-01-27T06:13:56.555Z,16.55
2023-01-27T06:23:59.249Z,13.45
2023-01-27T06:34:01.757Z,23.60
2023-01-27T06:44:04.642Z,19.30
2023-01-27T06:54:07.321Z,29.50
2023-01-27T07:04:09.907Z,30.90
2023-01-27T07:14:12.587Z,20.63
2023-01-27T07:24:15.225Z,12.27
2023-01-27T07:34:17.825Z,21.23
2023-01-27T07:44:21.707Z,20.63
2023-01-27T07:54:25.282Z,16.20
2023-01-27T08:04:27.765Z,13.63
2023-01-27T08:14:30.336Z,24.97
2023-01-27T08:24:32.777Z,16.33
2023-01-27T08:34:35.331Z,22.67
2023-01-27T08:44:37.845Z,19.83
2023-01-27T08:54:40.368Z,20.77
2023-01-27T09:04:45.258Z,17.90
2023-01-27T09:14:47.791Z,16.53
2023-01-27T09:24:50.308Z,16.40
2023-01-27T09:34:52.755Z,16.45
2023-01-27T09:45:07.361Z,14.25
2023-01-27T09:55:09.889Z,14.77
2023-01-27T10:05:30.743Z,17.60
2023-01-27T10:16:00.524Z,14.70
2023-01-27T10:26:15.225Z,11.23
2023-01-27T10:36:43.172Z,13.60
2023-01-27T10:47:01.508Z,13.25
2023-01-27T10:57:14.936Z,16.57
2023-01-27T11:07:20.701Z,15.43
2023-01-27T11:17:38.941Z,15.27
2023-01-27T11:28:11.772Z,9.07
2023-01-27T11:38:19.723Z,13.93
2023-01-27T11:48:23.540Z,15.97
2023-01-27T11:58:34.298Z,16.35
2023-01-27T12:08:45.814Z,16.57
2023-01-27T12:19:01.280Z,15.90
2023-01-27T12:29:14.042Z,18.73
2023-01-27T12:39:50.198Z,20.03
2023-01-27T12:50:23.421Z,25.57
2023-01-27T13:00:26.611Z,28.42
2023-01-27T13:10:29.334Z,25.88
2023-01-27T13:20:41.546Z,27.63
2023-01-27T13:30:52.504Z,28.43
2023-01-27T13:40:55.412Z,17.60
2023-01-27T13:51:14.949Z,22.03
2023-01-27T14:01:32.111Z,25.33
2023-01-27T14:11:37.566Z,22.88
2023-01-27T14:21:48.038Z,27.53
2023-01-27T14:32:09.910Z,24.90
2023-01-27T14:42:31.274Z,25.83
2023-01-27T14:52:41.874Z,39.50
2023-01-27T15:02:44.714Z,28.90
2023-01-27T15:13:05.260Z,33.77
2023-01-27T15:23:34.978Z,35.53
2023-01-27T15:33:46.419Z,35.40
2023-01-27T15:44:05.421Z,29.63
2023-01-27T15:54:16.805Z,34.10
2023-01-27T16:04:26.774Z,29.00
2023-01-27T16:14:41.051Z,34.37
2023-01-27T16:25:24.757Z,38.50
2023-01-27T16:35:27.896Z,33.15
2023-01-27T16:45:42.165Z,29.37
2023-01-27T16:56:06.610Z,40.03
2023-01-27T17:06:16.161Z,27.38
2023-01-27T17:16:41.397Z,34.17
2023-01-27T17:26:48.194Z,28.63
2023-01-27T17:37:20.577Z,33.60
2023-01-27T17:47:24.861Z,32.83
2023-01-27T17:57:35.541Z,26.83
2023-01-27T18:07:38.493Z,29.40
2023-01-27T18:17:42.055Z,30.25
2023-01-27T18:27:52.877Z,30.17
2023-01-27T18:38:02.420Z,30.90
2023-01-27T18:48:16.509Z,32.10
2023-01-27T18:58:20.485Z,26.83
2023-01-27T19:08:24.782Z,24.17
2023-01-27T19:18:37.656Z,24.95
2023-01-27T19:28:40.160Z,28.03
2023-01-27T19:38:42.753Z,30.50
2023-01-27T19:48:46.073Z,24.77
2023-01-27T19:58:54.891Z,29.17
2023-01-27T20:09:00.690Z,25.43
2023-01-27T20:19:04.212Z,32.33
2023-01-27T20:29:06.643Z,26.05
2023-01-27T20:39:11.003Z,25.53
2023-01-27T20:49:13.749Z,26.17
2023-01-27T20:59:16.441Z,32.85
2023-01-27T21:09:19.143Z,24.90
2023-01-27T21:19:21.661Z,25.43
2023-01-27T21:29:24.855Z,25.38
2023-01-27T21:39:27.479Z,25.55
2023-01-27T21:49:30.261Z,28.07
2023-01-27T21:59:34.363Z,23.77
2023-01-27T22:09:37.633Z,23.55
2023-01-27T22:19:40.162Z,28.03
2023-01-27T22:29:42.629Z,23.60
2023-01-27T22:39:45.175Z,25.17
2023-01-27T22:49:47.659Z,30.47
2023-01-27T22:59:50.219Z,24.83
2023-01-27T23:09:52.922Z,23.55
2023-01-27T23:19:55.394Z,22.35
2023-01-27T23:29:57.867Z,23.00
2023-01-27T23:40:00.346Z,24.30
2023-01-27T23:50:03.147Z,23.20
